createdAt,value
2022-07-30T00:00:11.464Z,18.43
2022-07-30T00:02:50.823Z,18.35
2022-07-30T00:05:31.156Z,18.38
2022-07-30T00:08:10.441Z,18.32
2022-07-30T00:10:48.784Z,18.31
2022-07-30T00:13:28.449Z,18.26
2022-07-30T00:16:07.560Z,18.21
2022-07-30T00:18:47.672Z,18.25
2022-07-30T00:21:38.420Z,18.21
2022-07-30T00:24:18.579Z,18.19
2022-07-30T00:27:00.799Z,18.20
2022-07-30T00:29:44.956Z,18.10
2022-07-30T00:32:23.180Z,18.01
2022-07-30T00:35:02.949Z,18.00
2022-07-30T00:37:41.183Z,17.98
2022-07-30T00:40:21.316Z,17.96
2022-07-30T00:43:00.797Z,17.91
2022-07-30T00:45:40.425Z,17.93
2022-07-30T00:48:18.763Z,17.91
2022-07-30T00:50:57.308Z,17.91
2022-07-30T00:53:57.993Z,17.85
2022-07-30T00:56:37.454Z,17.85
2022-07-30T00:59:17.791Z,17.80
2022-07-30T01:02:01.629Z,17.81
2022-07-30T01:04:42.048Z,17.78
2022-07-30T01:07:27.212Z,17.74
2022-07-30T01:10:07.529Z,17.66
2022-07-30T01:12:46.639Z,17.68
2022-07-30T01:15:26.505Z,17.65
2022-07-30T01:18:09.278Z,17.60
2022-07-30T01:20:57.019Z,17.60
2022-07-30T01:23:43.236Z,17.57
2022-07-30T01:26:27.365Z,17.60
2022-07-30T01:29:10.211Z,17.50
2022-07-30T01:31:50.395Z,17.66
2022-07-30T01:34:33.926Z,17.64
2022-07-30T01:37:13.105Z,17.67
2022-07-30T01:39:53.099Z,17.59
2022-07-30T01:42:35.058Z,17.59
2022-07-30T01:45:18.226Z,17.68
2022-07-30T01:47:58.586Z,17.70
2022-07-30T01:50:38.421Z,17.74
2022-07-30T01:53:18.096Z,17.77
2022-07-30T01:55:58.109Z,17.79
2022-07-30T01:58:38.778Z,17.82
2022-07-30T02:01:33.750Z,17.83
2022-07-30T02:04:14.953Z,17.79
2022-07-30T02:07:01.255Z,17.83
2022-07-30T02:09:49.094Z,17.74
2022-07-30T02:12:30.903Z,17.66
2022-07-30T02:15:21.463Z,17.67
2022-07-30T02:18:03.240Z,17.70
2022-07-30T02:21:10.088Z,17.59
2022-07-30T02:23:55.353Z,17.68
2022-07-30T02:26:35.078Z,17.71
2022-07-30T02:29:18.100Z,17.68
2022-07-30T02:32:01.737Z,17.60
2022-07-30T02:34:44.248Z,17.51
2022-07-30T02:37:43.736Z,17.57
2022-07-30T02:40:24.980Z,17.48
2022-07-30T02:43:03.615Z,17.50
2022-07-30T02:45:45.547Z,17.42
2022-07-30T02:48:34.212Z,17.29
2022-07-30T02:51:17.472Z,17.51
2022-07-30T02:53:57.949Z,17.47
2022-07-30T02:56:38.473Z,17.42
2022-07-30T02:59:17.366Z,17.40
2022-07-30T03:01:59.931Z,17.56
2022-07-30T03:04:40.805Z,17.45
2022-07-30T03:07:20.900Z,17.50
2022-07-30T03:09:59.624Z,17.38
2022-07-30T03:12:41.842Z,17.36
2022-07-30T03:15:23.627Z,17.40
2022-07-30T03:18:04.792Z,17.27
2022-07-30T03:20:48.488Z,17.24
2022-07-30T03:23:29.088Z,17.32
2022-07-30T03:26:09.533Z,17.26
2022-07-30T03:28:52.659Z,17.25
2022-07-30T03:31:37.912Z,17.26
2022-07-30T03:34:18.001Z,17.26
2022-07-30T03:37:00.086Z,17.31
2022-07-30T03:39:41.752Z,17.32
2022-07-30T03:42:23.381Z,17.39
2022-07-30T03:45:02.998Z,17.40
2022-07-30T03:47:45.564Z,17.34
2022-07-30T03:50:26.566Z,17.38
2022-07-30T03:53:17.176Z,17.12
2022-07-30T03:56:28.564Z,17.23
2022-07-30T03:59:18.244Z,17.25
2022-07-30T04:02:07.332Z,17.34
2022-07-30T04:05:14.336Z,17.28
2022-07-30T04:07:53.707Z,17.20
2022-07-30T04:10:36.721Z,17.27
2022-07-30T04:13:39.939Z,17.27
2022-07-30T04:16:38.994Z,17.37
2022-07-30T04:19:43.316Z,17.44
2022-07-30T04:22:29.356Z,17.43
2022-07-30T04:25:10.190Z,17.44
2022-07-30T04:28:02.943Z,17.50
2022-07-30T04:30:43.429Z,17.58
2022-07-30T04:33:22.025Z,17.63
2022-07-30T04:36:22.252Z,17.68
2022-07-30T04:39:01.232Z,17.70
2022-07-30T04:41:49.716Z,17.69
2022-07-30T04:44:39.878Z,17.69
2022-07-30T04:47:35.450Z,17.61
2022-07-30T04:50:36.112Z,17.39
2022-07-30T04:53:19.604Z,17.34
2022-07-30T04:56:06.261Z,17.36
2022-07-30T04:58:46.747Z,17.37
2022-07-30T05:01:39.353Z,17.43
2022-07-30T05:04:20.634Z,17.52
2022-07-30T05:07:03.454Z,17.39
2022-07-30T05:09:43.161Z,17.32
2022-07-30T05:12:33.303Z,17.30
2022-07-30T05:15:15.951Z,17.10
2022-07-30T05:17:57.808Z,16.96
2022-07-30T05:20:38.530Z,17.09
2022-07-30T05:23:31.756Z,17.04
2022-07-30T05:26:33.717Z,17.00
2022-07-30T05:29:19.410Z,16.93
2022-07-30T05:32:04.157Z,16.76
2022-07-30T05:34:49.934Z,16.79
2022-07-30T05:37:30.044Z,16.83
2022-07-30T05:40:11.250Z,16.88
2022-07-30T05:43:10.395Z,16.94
2022-07-30T05:45:54.016Z,17.00
2022-07-30T05:48:36.857Z,17.12
2022-07-30T05:51:16.872Z,17.20
2022-07-30T05:53:59.616Z,17.27
2022-07-30T05:57:06.358Z,17.34
2022-07-30T05:59:50.357Z,17.40
2022-07-30T06:02:40.694Z,17.42
2022-07-30T06:05:42.715Z,17.32
2022-07-30T06:08:22.276Z,17.39
2022-07-30T06:11:04.293Z,17.37
2022-07-30T06:13:45.384Z,17.46
2022-07-30T06:16:27.990Z,17.56
2022-07-30T06:19:09.488Z,17.55
2022-07-30T06:22:05.301Z,17.58
2022-07-30T06:24:47.411Z,17.62
2022-07-30T06:27:39.586Z,17.63
2022-07-30T06:30:20.730Z,17.67
2022-07-30T06:33:11.973Z,17.70
2022-07-30T06:35:51.568Z,17.77
2022-07-30T06:38:34.568Z,17.89
2022-07-30T06:41:22.427Z,17.91
2022-07-30T06:44:05.610Z,17.89
2022-07-30T06:47:36.384Z,17.89
2022-07-30T06:50:20.124Z,17.98
2022-07-30T06:53:02.861Z,18.00
2022-07-30T06:56:00.221Z,18.07
2022-07-30T06:58:47.639Z,18.14
2022-07-30T07:02:31.074Z,18.14
2022-07-30T07:05:28.805Z,18.20
2022-07-30T07:08:09.306Z,18.25
2022-07-30T07:10:52.209Z,18.33
2022-07-30T07:13:40.096Z,18.39
2022-07-30T07:16:25.376Z,18.51
2022-07-30T07:19:06.049Z,18.59
2022-07-30T07:21:46.835Z,18.77
2022-07-30T07:24:27.364Z,18.83
2022-07-30T07:27:15.405Z,19.01
2022-07-30T07:30:05.050Z,19.24
2022-07-30T07:32:46.827Z,19.49
2022-07-30T07:35:27.753Z,19.83
2022-07-30T07:38:08.211Z,20.32
2022-07-30T07:40:48.580Z,20.86
2022-07-30T07:43:30.349Z,21.22
2022-07-30T07:46:16.427Z,21.52
2022-07-30T07:48:57.569Z,22.24
2022-07-30T07:51:48.928Z,22.80
2022-07-30T07:54:31.632Z,23.48
2022-07-30T07:57:13.407Z,23.61
2022-07-30T07:59:57.930Z,24.28
2022-07-30T08:02:40.814Z,25.01
2022-07-30T08:05:22.107Z,25.22
2022-07-30T08:08:13.621Z,25.48
2022-07-30T08:11:14.169Z,25.77
2022-07-30T08:14:14.644Z,26.47
2022-07-30T08:17:41.873Z,26.95
2022-07-30T08:20:26.638Z,26.60
2022-07-30T08:23:08.871Z,27.10
2022-07-30T08:25:48.345Z,27.54
2022-07-30T08:28:36.062Z,27.90
2022-07-30T08:31:17.995Z,27.92
2022-07-30T08:33:59.487Z,27.88
2022-07-30T08:36:40.708Z,27.69
2022-07-30T08:39:21.420Z,27.76
2022-07-30T08:42:05.076Z,28.08
2022-07-30T08:44:45.564Z,28.15
2022-07-30T08:47:32.288Z,28.50
2022-07-30T08:50:31.044Z,28.49
2022-07-30T08:53:28.383Z,28.43
2022-07-30T08:56:09.259Z,28.73
2022-07-30T08:58:49.697Z,29.24
2022-07-30T09:01:33.000Z,29.57
2022-07-30T09:04:14.276Z,30.12
2022-07-30T09:06:54.633Z,30.15
2022-07-30T09:09:34.009Z,30.62
2022-07-30T09:12:37.892Z,30.77
2022-07-30T09:15:20.310Z,30.89
2022-07-30T09:18:03.556Z,31.51
2022-07-30T09:21:17.401Z,31.60
2022-07-30T09:24:14.491Z,31.62
2022-07-30T09:27:16.014Z,32.12
2022-07-30T09:30:01.659Z,32.20
2022-07-30T09:33:03.397Z,32.44
2022-07-30T09:36:16.923Z,32.87
2022-07-30T09:39:29.523Z,33.19
2022-07-30T09:42:31.965Z,32.23
2022-07-30T09:45:17.872Z,32.13
2022-07-30T09:48:42.373Z,32.31
2022-07-30T09:51:55.805Z,32.57
2022-07-30T09:55:06.017Z,32.11
2022-07-30T09:57:58.880Z,32.46
2022-07-30T10:01:00.365Z,32.78
2022-07-30T10:04:27.214Z,32.57
2022-07-30T10:07:25.677Z,31.95
2022-07-30T10:11:08.671Z,32.36
2022-07-30T10:13:51.456Z,32.68
2022-07-30T10:16:33.161Z,32.76
2022-07-30T10:19:19.217Z,32.80
2022-07-30T10:22:22.686Z,32.08
2022-07-30T10:25:28.039Z,32.62
2022-07-30T10:28:28.317Z,33.05
2022-07-30T10:31:47.930Z,33.26
2022-07-30T10:34:13.188Z,33.30
2022-07-30T10:36:57.566Z,32.99
2022-07-30T10:39:40.541Z,33.16
2022-07-30T10:42:29.893Z,33.42
2022-07-30T10:45:22.993Z,33.52
2022-07-30T10:48:03.800Z,33.28
2022-07-30T10:50:55.228Z,33.51
2022-07-30T10:53:38.101Z,33.45
2022-07-30T10:56:25.526Z,33.93
2022-07-30T10:59:08.145Z,33.03
2022-07-30T11:02:10.832Z,32.73
2022-07-30T11:05:44.033Z,33.04
2022-07-30T11:08:36.160Z,33.32
2022-07-30T11:12:01.098Z,33.74
2022-07-30T11:15:06.462Z,34.19
2022-07-30T11:18:12.524Z,34.25
2022-07-30T11:21:21.314Z,34.47
2022-07-30T11:24:03.922Z,33.86
2022-07-30T11:26:52.584Z,33.92
2022-07-30T11:29:50.904Z,34.17
2022-07-30T11:32:33.282Z,34.42
2022-07-30T11:35:23.023Z,34.24
2022-07-30T11:38:06.440Z,34.34
2022-07-30T11:41:11.328Z,34.13
2022-07-30T11:44:26.257Z,33.82
2022-07-30T11:47:06.608Z,34.33
2022-07-30T11:49:47.131Z,34.66
2022-07-30T11:52:26.787Z,34.65
2022-07-30T11:55:09.764Z,34.93
2022-07-30T11:57:49.536Z,35.08
2022-07-30T12:00:35.679Z,35.00
2022-07-30T12:03:16.728Z,35.05
2022-07-30T12:05:57.061Z,34.81
2022-07-30T12:08:43.758Z,34.22
2022-07-30T12:11:22.222Z,34.75
2022-07-30T12:14:03.211Z,34.97
2022-07-30T12:16:50.901Z,34.95
2022-07-30T12:19:30.896Z,35.00
2022-07-30T12:22:41.709Z,34.38
2022-07-30T12:25:20.359Z,34.36
2022-07-30T12:28:00.845Z,33.94
2022-07-30T12:30:40.954Z,34.22
2022-07-30T12:33:19.804Z,34.37
2022-07-30T12:36:00.860Z,34.34
2022-07-30T12:38:48.763Z,34.30
2022-07-30T12:44:39.893Z,33.42
2022-07-30T12:47:23.742Z,33.34
2022-07-30T12:50:17.668Z,33.57
2022-07-30T12:52:57.872Z,33.34
2022-07-30T12:55:37.786Z,33.28
2022-07-30T12:58:17.521Z,33.33
2022-07-30T13:00:57.328Z,33.33
2022-07-30T13:03:40.199Z,33.43
2022-07-30T13:06:23.351Z,33.47
2022-07-30T13:09:06.050Z,33.28
2022-07-30T13:11:49.691Z,33.28
2022-07-30T13:14:27.962Z,33.06
2022-07-30T13:17:09.550Z,33.01
2022-07-30T13:19:48.839Z,32.58
2022-07-30T13:22:40.468Z,32.15
2022-07-30T13:25:22.354Z,32.00
2022-07-30T13:28:01.563Z,31.86
2022-07-30T13:30:54.073Z,31.33
2022-07-30T13:33:36.912Z,31.16
2022-07-30T13:36:18.507Z,30.65
2022-07-30T13:38:59.113Z,30.36
2022-07-30T13:41:41.540Z,30.02
2022-07-30T13:44:21.831Z,29.89
2022-07-30T13:47:02.193Z,29.91
2022-07-30T13:49:44.017Z,29.89
2022-07-30T13:52:24.418Z,29.84
2022-07-30T13:55:04.441Z,29.84
2022-07-30T13:57:45.247Z,29.78
2022-07-30T14:00:24.561Z,29.73
2022-07-30T14:03:06.819Z,29.55
2022-07-30T14:05:46.749Z,29.38
2022-07-30T14:08:31.452Z,29.39
2022-07-30T14:11:09.864Z,29.43
2022-07-30T14:13:49.317Z,29.24
2022-07-30T14:16:46.583Z,29.18
2022-07-30T14:19:28.495Z,29.19
2022-07-30T14:22:09.953Z,29.15
2022-07-30T14:24:49.389Z,29.07
2022-07-30T14:27:29.158Z,29.00
2022-07-30T14:30:10.687Z,28.84
2022-07-30T14:32:54.337Z,28.77
2022-07-30T14:35:38.234Z,28.63
2022-07-30T14:38:18.201Z,28.54
2022-07-30T14:40:57.798Z,28.35
2022-07-30T14:43:39.728Z,28.42
2022-07-30T14:46:21.154Z,28.28
2022-07-30T14:49:00.514Z,28.21
2022-07-30T14:51:40.563Z,28.13
2022-07-30T14:54:20.366Z,28.18
2022-07-30T14:57:00.115Z,28.10
2022-07-30T14:59:39.665Z,28.07
2022-07-30T15:02:19.447Z,28.14
2022-07-30T15:04:59.312Z,27.92
2022-07-30T15:07:41.104Z,28.18
2022-07-30T15:10:20.635Z,28.25
2022-07-30T15:13:01.939Z,28.18
2022-07-30T15:15:41.762Z,28.22
2022-07-30T15:18:23.161Z,28.22
2022-07-30T15:21:13.652Z,28.17
2022-07-30T15:23:52.959Z,28.22
2022-07-30T15:26:32.421Z,28.29
2022-07-30T15:29:14.157Z,28.31
2022-07-30T15:31:54.187Z,28.34
2022-07-30T15:34:34.932Z,28.26
2022-07-30T15:37:15.486Z,28.25
2022-07-30T15:39:56.167Z,28.23
2022-07-30T15:42:35.992Z,28.12
2022-07-30T15:45:18.228Z,28.08
2022-07-30T15:48:00.866Z,28.02
2022-07-30T15:50:40.279Z,27.84
2022-07-30T15:53:22.120Z,27.68
2022-07-30T15:56:01.692Z,27.61
2022-07-30T15:58:43.558Z,27.51
2022-07-30T16:01:26.383Z,27.46
2022-07-30T16:04:05.968Z,27.48
2022-07-30T16:06:45.510Z,27.38
2022-07-30T16:09:25.490Z,27.37
2022-07-30T16:12:07.873Z,27.33
2022-07-30T16:14:48.096Z,27.27
2022-07-30T16:17:38.483Z,27.16
2022-07-30T16:20:17.984Z,27.08
2022-07-30T16:22:57.702Z,26.98
2022-07-30T16:25:37.532Z,26.93
2022-07-30T16:28:17.292Z,26.91
2022-07-30T16:30:59.360Z,26.85
2022-07-30T16:33:38.864Z,26.84
2022-07-30T16:36:18.377Z,26.79
2022-07-30T16:39:01.199Z,26.69
2022-07-30T16:41:41.340Z,26.84
2022-07-30T16:44:21.090Z,26.80
2022-07-30T16:47:01.255Z,26.72
2022-07-30T16:49:40.628Z,26.70
2022-07-30T16:52:20.363Z,26.65
2022-07-30T16:55:01.208Z,26.65
2022-07-30T16:58:00.823Z,26.63
2022-07-30T17:00:41.081Z,26.52
2022-07-30T17:03:20.534Z,26.56
2022-07-30T17:06:12.675Z,26.56
2022-07-30T17:08:51.840Z,26.57
2022-07-30T17:11:47.670Z,26.49
2022-07-30T17:14:31.003Z,26.40
2022-07-30T17:17:14.267Z,26.36
2022-07-30T17:19:55.086Z,26.30
2022-07-30T17:22:34.873Z,26.27
2022-07-30T17:25:16.361Z,26.19
2022-07-30T17:27:56.408Z,26.15
2022-07-30T17:30:35.885Z,26.09
2022-07-30T17:33:15.685Z,26.12
2022-07-30T17:35:55.575Z,26.07
2022-07-30T17:38:35.372Z,26.04
2022-07-30T17:41:15.105Z,25.97
2022-07-30T17:43:54.913Z,25.98
2022-07-30T17:46:34.173Z,25.93
2022-07-30T17:49:16.637Z,25.85
2022-07-30T17:51:54.729Z,25.81
2022-07-30T17:54:34.180Z,25.77
2022-07-30T17:57:15.117Z,25.69
2022-07-30T17:59:55.392Z,25.64
2022-07-30T18:02:38.882Z,25.61
2022-07-30T18:05:41.069Z,25.56
2022-07-30T18:09:52.412Z,25.48
2022-07-30T18:13:27.576Z,25.42
2022-07-30T18:16:16.571Z,25.35
2022-07-30T18:19:27.401Z,25.20
2022-07-30T18:22:31.875Z,25.04
2022-07-30T18:25:23.242Z,24.69
2022-07-30T18:28:20.087Z,24.54
2022-07-30T18:31:09.748Z,24.48
2022-07-30T18:34:10.679Z,24.30
2022-07-30T18:36:53.077Z,23.48
2022-07-30T18:39:33.247Z,22.92
2022-07-30T18:42:11.937Z,22.54
2022-07-30T18:44:53.373Z,22.51
2022-07-30T18:47:34.757Z,22.35
2022-07-30T18:50:16.250Z,22.23
2022-07-30T18:52:56.411Z,21.87
2022-07-30T18:55:38.930Z,21.93
2022-07-30T18:58:18.362Z,21.82
2022-07-30T19:00:56.936Z,21.29
2022-07-30T19:03:36.371Z,21.44
2022-07-30T19:06:18.186Z,20.79
2022-07-30T19:09:00.739Z,20.84
2022-07-30T19:11:39.889Z,20.97
2022-07-30T19:14:19.115Z,20.86
2022-07-30T19:16:59.391Z,20.80
2022-07-30T19:19:40.056Z,20.82
2022-07-30T19:22:29.754Z,20.59
2022-07-30T19:25:10.391Z,20.64
2022-07-30T19:27:51.125Z,20.50
2022-07-30T19:30:31.462Z,20.35
2022-07-30T19:33:15.442Z,20.40
2022-07-30T19:35:58.478Z,20.40
2022-07-30T19:38:39.653Z,20.26
2022-07-30T19:41:19.578Z,20.21
2022-07-30T19:44:00.248Z,20.23
2022-07-30T19:46:41.364Z,20.20
2022-07-30T19:49:22.032Z,20.22
2022-07-30T19:52:23.353Z,20.25
2022-07-30T19:55:30.523Z,20.33
2022-07-30T19:58:16.443Z,20.36
2022-07-30T20:00:57.125Z,20.37
2022-07-30T20:03:38.783Z,20.35
2022-07-30T20:06:19.143Z,20.31
2022-07-30T20:09:01.716Z,20.28
2022-07-30T20:11:45.112Z,20.29
2022-07-30T20:14:43.313Z,20.25
2022-07-30T20:17:24.610Z,20.25
2022-07-30T20:20:08.962Z,20.23
2022-07-30T20:22:49.731Z,20.28
2022-07-30T20:25:37.062Z,20.23
2022-07-30T20:28:17.424Z,20.20
2022-07-30T20:31:00.748Z,20.21
2022-07-30T20:33:39.174Z,20.17
2022-07-30T20:36:23.370Z,20.16
2022-07-30T20:39:19.796Z,20.16
2022-07-30T20:42:08.489Z,20.10
2022-07-30T20:45:02.751Z,20.07
2022-07-30T20:48:06.037Z,19.95
2022-07-30T20:50:46.492Z,19.95
2022-07-30T20:53:36.088Z,19.91
2022-07-30T20:56:20.613Z,19.86
2022-07-30T20:58:59.941Z,19.78
2022-07-30T21:01:41.292Z,19.76
2022-07-30T21:04:23.872Z,19.71
2022-07-30T21:07:20.776Z,19.60
2022-07-30T21:10:00.286Z,19.57
2022-07-30T21:12:44.839Z,19.52
2022-07-30T21:15:36.081Z,19.33
2022-07-30T21:18:17.600Z,19.37
2022-07-30T21:20:58.657Z,19.34
2022-07-30T21:23:38.815Z,19.29
2022-07-30T21:26:18.891Z,19.18
2022-07-30T21:29:05.028Z,19.17
2022-07-30T21:34:46.555Z,19.13
2022-07-30T21:37:26.990Z,19.09
2022-07-30T21:40:24.682Z,18.97
2022-07-30T21:43:05.137Z,18.93
2022-07-30T21:45:48.109Z,18.87
2022-07-30T21:48:37.397Z,18.87
2022-07-30T21:51:19.038Z,18.80
2022-07-30T21:53:58.788Z,18.81
2022-07-30T21:56:41.642Z,18.83
2022-07-30T21:59:21.890Z,18.76
2022-07-30T22:02:04.111Z,18.70
2022-07-30T22:04:57.583Z,18.64
2022-07-30T22:07:38.680Z,18.62
2022-07-30T22:10:21.261Z,18.58
2022-07-30T22:13:01.449Z,18.56
2022-07-30T22:15:43.557Z,18.53
2022-07-30T22:18:24.238Z,18.52
2022-07-30T22:21:05.625Z,18.52
2022-07-30T22:23:58.290Z,18.39
2022-07-30T22:26:40.080Z,18.35
2022-07-30T22:29:19.453Z,18.31
2022-07-30T22:31:59.320Z,18.31
2022-07-30T22:34:39.407Z,18.32
2022-07-30T22:37:21.354Z,18.32
2022-07-30T22:40:04.863Z,18.30
2022-07-30T22:42:50.041Z,18.15
2022-07-30T22:45:45.013Z,18.21
2022-07-30T22:48:28.987Z,18.11
2022-07-30T22:51:11.885Z,18.07
2022-07-30T22:54:10.401Z,18.10
2022-07-30T22:56:53.993Z,18.14
2022-07-30T23:00:00.418Z,18.20
2022-07-30T23:02:33.984Z,18.23
2022-07-30T23:05:15.872Z,18.24
2022-07-30T23:07:53.917Z,18.25
2022-07-30T23:10:32.483Z,18.25
2022-07-30T23:12:32.621Z,19.16
2022-07-30T23:13:15.336Z,18.24
2022-07-30T23:16:05.613Z,18.31
2022-07-30T23:18:46.239Z,18.29
2022-07-30T23:21:25.976Z,18.19
2022-07-30T23:24:08.088Z,18.22
2022-07-30T23:27:06.003Z,18.24
2022-07-30T23:29:46.881Z,18.24
2022-07-30T23:32:26.591Z,18.33
2022-07-30T23:35:07.637Z,18.31
2022-07-30T23:37:49.418Z,18.30
2022-07-30T23:40:31.244Z,18.29
2022-07-30T23:43:10.567Z,18.31
2022-07-30T23:45:52.392Z,18.27
2022-07-30T23:48:32.060Z,18.24
2022-07-30T23:51:16.704Z,18.30
2022-07-30T23:54:17.064Z,18.31
2022-07-30T23:56:57.379Z,18.26
2022-07-30T23:59:41.755Z,18.23
